RJAF

Matsumoto Airport

Airport
ICAO code
RJAF
IATA Code
MMJ
Summary
ICAO Region
APAC
ICAO Territory
Location

Matsumoto, Nagano Prefecture

Serving
Matsumoto
Elevation
2157 ft
Coordinates
36° 9' 53" N , 137° 55' 35" E
KCC
Metar
Observation
RJAF 292330Z 16016KT 9999 VCSH FEW025 SCT060 M00/M07 Q1010
Station
Matsumoto Airport
Date/Time
2023-01-30 00:30:00
Wind direction
160°
Wind speed
16 kts
Lowest cloud amount
few clouds
Temperature
-0°C
Dew point
-7°C
Humidity
59%
QNH
1010 hPa
Weather condition
in vicinity: showers

Also known as Shinshu-Matsumoto Airport, is an airport located 9.3 km southwest of central Matsumoto, Nagano Prefecture, Japan.

Climatology

Humid Continental climate (Köppen climate classification Dfa)

Runways

Designator Length Width Surface Rops
18/36 1999 46 ASP No/No

Airport map

Aerial View

SKYbrary Partners:

Safety knowledge contributed by: